Time;durP1;ratioP1;P1;durP2;ratioP2;P2;SDS_P1;SDS_P2;PMS_P1;PMS_P2;Temp;Humidity;BMP_temperature;BMP_pressure;BME280_temperature;BME280_humidity;BME280_pressure;Samples;Min_cycle;Max_cycle;Signal;HPM_P1;HPM_P2
2024/01/15 00:00:33;;;;;;;99.82;47.35;;;;;;;-1.23;100.00;100257.41;5025119;28;20057;-77
2024/01/15 00:02:58;;;;;;;91.50;46.67;;;;;;;-1.35;100.00;100228.84;5023035;28;20306;-79
2024/01/15 00:05:24;;;;;;;93.97;47.35;;;;;;;-1.15;100.00;100257.31;5023860;28;20382;-77
2024/01/15 00:07:49;;;;;;;99.60;48.63;;;;;;;-1.12;100.00;100257.28;5022178;28;20120;-78
2024/01/15 00:10:14;;;;;;;91.32;46.83;;;;;;;-1.18;100.00;100244.31;5025641;28;20382;-77
2024/01/15 00:12:40;;;;;;;95.97;46.53;;;;;;;-1.08;100.00;100240.72;5021018;28;20480;-77
2024/01/15 00:15:05;;;;;;;94.15;44.63;;;;;;;-1.07;100.00;100245.03;5020174;28;20075;-77
2024/01/15 00:17:31;;;;;;;95.30;45.60;;;;;;;-1.08;100.00;100241.56;5022896;28;20400;-77
2024/01/15 00:19:56;;;;;;;84.82;43.15;;;;;;;-1.08;100.00;100231.13;5023703;28;20021;-77
2024/01/15 00:22:23;;;;;;;85.43;42.90;;;;;;;-1.05;100.00;100224.97;5023673;28;20041;-78
2024/01/15 00:24:49;;;;;;;83.57;42.42;;;;;;;-1.16;100.00;100209.47;5018047;28;20042;-77
2024/01/15 00:27:14;;;;;;;87.20;44.10;;;;;;;-1.18;100.00;100195.53;5022555;28;20021;-77
2024/01/15 00:29:39;;;;;;;76.60;40.30;;;;;;;-1.13;100.00;100203.31;5023700;28;20034;-78
2024/01/15 00:32:05;;;;;;;77.10;39.78;;;;;;;-1.15;100.00;100210.31;5022512;28;20017;-78
2024/01/15 00:34:30;;;;;;;67.18;36.35;;;;;;;-1.23;100.00;100207.81;5024712;28;20562;-78
2024/01/15 00:36:56;;;;;;;69.53;35.97;;;;;;;-1.21;100.00;100208.66;5025025;28;20071;-77
2024/01/15 00:39:21;;;;;;;66.60;35.33;;;;;;;-1.29;100.00;100197.47;5020181;28;20042;-77
2024/01/15 00:41:47;;;;;;;67.63;36.05;;;;;;;-1.24;100.00;100202.63;5022936;28;20026;-78
2024/01/15 00:44:12;;;;;;;59.60;30.77;;;;;;;-1.31;100.00;100183.53;5021900;28;20090;-78
2024/01/15 00:46:45;;;;;;;51.50;29.98;;;;;;;-1.22;100.00;100182.56;5026064;28;20558;-78
2024/01/15 00:49:11;;;;;;;52.80;27.33;;;;;;;-1.15;100.00;100189.44;5027434;28;20017;-77
2024/01/15 00:51:37;;;;;;;43.03;24.58;;;;;;;-1.14;100.00;100184.19;5027550;28;20029;-77
2024/01/15 00:54:02;;;;;;;40.80;21.20;;;;;;;-1.20;100.00;100171.22;5027527;28;20025;-77
2024/01/15 00:56:27;;;;;;;38.25;19.75;;;;;;;-1.16;100.00;100180.75;5025354;28;20472;-77
2024/01/15 00:58:53;;;;;;;36.00;18.85;;;;;;;-1.14;100.00;100186.78;5016353;28;20029;-78
2024/01/15 01:01:21;;;;;;;30.92;17.35;;;;;;;-1.18;100.00;100182.50;5024020;28;20054;-76
2024/01/15 01:03:46;;;;;;;30.58;15.73;;;;;;;-1.14;100.00;100181.56;5039128;28;20025;-77
2024/01/15 01:06:12;;;;;;;27.60;14.70;;;;;;;-1.10;100.00;100188.47;5026164;28;20546;-78
2024/01/15 01:08:38;;;;;;;23.40;12.07;;;;;;;-1.27;100.00;100151.28;5027012;28;20029;-78
2024/01/15 01:11:03;;;;;;;20.17;10.68;;;;;;;-1.04;100.00;100187.53;5025979;28;20044;-76
2024/01/15 01:13:29;;;;;;;15.32;8.90;;;;;;;-0.99;100.00;100184.88;5026611;28;20387;-77
2024/01/15 01:15:54;;;;;;;14.52;8.90;;;;;;;-1.08;100.00;100163.22;5026951;28;20075;-76
2024/01/15 01:18:19;;;;;;;16.02;8.10;;;;;;;-0.97;100.00;100189.16;5026557;28;20372;-76
2024/01/15 01:20:45;;;;;;;12.63;6.78;;;;;;;-1.12;100.00;100158.91;5023191;28;20029;-76
2024/01/15 01:23:10;;;;;;;8.90;5.97;;;;;;;-0.98;100.00;100181.34;5025560;28;20068;-77
2024/01/15 01:25:35;;;;;;;10.95;5.35;;;;;;;-1.05;100.00;100163.16;5029359;28;20491;-77
2024/01/15 01:28:00;;;;;;;11.18;5.47;;;;;;;-0.93;100.00;100180.41;5028974;28;20605;-77
2024/01/15 01:30:26;;;;;;;10.80;5.50;;;;;;;-0.94;100.00;100173.44;5028392;28;20033;-76
2024/01/15 01:32:51;;;;;;;7.88;5.35;;;;;;;-0.96;100.00;100170.00;5027281;28;20064;-78
2024/01/15 01:35:17;;;;;;;9.02;5.20;;;;;;;-0.98;100.00;100163.06;5028223;28;20026;-75
2024/01/15 01:37:42;;;;;;;7.32;5.45;;;;;;;-0.87;100.00;100179.47;5029324;28;20105;-76
2024/01/15 01:40:08;;;;;;;10.18;5.85;;;;;;;-0.93;100.00;100174.31;5028357;28;20029;-77
2024/01/15 01:42:33;;;;;;;10.18;6.10;;;;;;;-1.03;100.00;100155.31;5025950;28;20021;-77
2024/01/15 01:44:58;;;;;;;9.35;6.53;;;;;;;-0.94;100.00;100170.84;5025528;28;20116;-77
2024/01/15 01:47:26;;;;;;;10.85;7.43;;;;;;;-0.92;100.00;100181.25;5018511;28;20037;-78
2024/01/15 01:49:52;;;;;;;11.65;7.35;;;;;;;-0.97;100.00;100175.25;5028048;28;20040;-77
2024/01/15 01:52:21;;;;;;;12.02;7.40;;;;;;;-0.99;100.00;100171.81;5028366;28;20557;-77
2024/01/15 01:54:51;;;;;;;15.50;7.72;;;;;;;-0.94;100.00;100173.44;5028289;28;20080;-76
2024/01/15 01:57:18;;;;;;;14.32;8.27;;;;;;;-0.97;100.00;100173.50;5027696;28;20207;-78
2024/01/15 01:59:44;;;;;;;15.90;9.10;;;;;;;-0.99;100.00;100159.59;5027129;28;20044;-76
2024/01/15 02:02:10;;;;;;;12.77;7.80;;;;;;;-0.96;100.00;100175.25;5028365;28;20566;-76
2024/01/15 02:04:36;;;;;;;12.68;8.00;;;;;;;-1.04;100.00;100164.91;5028261;28;20034;-76
2024/01/15 02:07:02;;;;;;;15.43;7.53;;;;;;;-1.08;100.00;100175.41;5028097;28;20041;-78
2024/01/15 02:09:28;;;;;;;11.57;7.43;;;;;;;-1.11;100.00;100178.06;5020882;28;20038;-77
2024/01/15 02:11:53;;;;;;;12.55;7.90;;;;;;;-1.10;100.00;100177.16;5028503;28;20041;-76
2024/01/15 02:14:20;;;;;;;15.40;7.85;;;;;;;-1.16;100.00;100172.91;5028431;28;20389;-78
2024/01/15 02:16:45;;;;;;;13.10;8.20;;;;;;;-1.08;100.00;100176.28;5027560;28;20030;-78
2024/01/15 02:19:17;;;;;;;18.00;9.15;;;;;;;-1.09;100.00;100177.13;5027817;28;20029;-77
2024/01/15 02:21:43;;;;;;;13.90;9.18;;;;;;;-1.16;100.00;100165.06;5026231;28;20039;-77
2024/01/15 02:24:09;;;;;;;18.63;9.07;;;;;;;-1.21;100.00;100147.72;5026914;28;20438;-77
2024/01/15 02:26:35;;;;;;;18.08;9.25;;;;;;;-1.14;100.00;100168.50;5027429;28;20029;-76
2024/01/15 02:29:02;;;;;;;19.98;9.90;;;;;;;-1.21;100.00;100169.50;5025807;28;20491;-78
2024/01/15 02:31:27;;;;;;;19.20;10.05;;;;;;;-1.12;100.00;100171.13;5026576;28;20112;-77
2024/01/15 02:33:53;;;;;;;16.05;10.35;;;;;;;-1.12;100.00;100165.91;5026906;28;21066;-77
2024/01/15 02:36:18;;;;;;;19.92;10.15;;;;;;;-1.17;100.00;100165.97;5028693;28;20093;-77
2024/01/15 02:38:43;;;;;;;15.73;9.30;;;;;;;-1.32;100.00;100143.53;5025877;28;20026;-76
2024/01/15 02:41:09;;;;;;;16.42;9.95;;;;;;;-1.27;100.00;100153.91;5023239;28;20464;-78
2024/01/15 02:43:34;;;;;;;15.82;9.68;;;;;;;-1.29;100.00;100153.06;5028224;28;20095;-78
2024/01/15 02:45:59;;;;;;;15.30;9.18;;;;;;;-1.32;100.00;100150.50;5028701;28;20028;-77
2024/01/15 02:48:25;;;;;;;15.13;8.27;;;;;;;-1.34;100.00;100157.47;5027622;28;20021;-77
2024/01/15 02:50:50;;;;;;;14.07;8.35;;;;;;;-1.30;100.00;100148.72;5026842;28;20080;-78
2024/01/15 02:53:16;;;;;;;14.63;7.85;;;;;;;-1.42;100.00;100138.44;5027101;28;20029;-76
2024/01/15 02:55:41;;;;;;;11.25;6.30;;;;;;;-1.25;100.00;100162.59;5027027;28;20383;-75
2024/01/15 02:58:07;;;;;;;15.32;6.47;;;;;;;-1.33;100.00;100160.06;5026476;28;20079;-75
2024/01/15 03:00:32;;;;;;;8.50;5.57;;;;;;;-1.37;100.00;100162.75;5021671;28;20068;-76
2024/01/15 03:02:58;;;;;;;10.55;5.57;;;;;;;-1.58;100.00;100124.75;5025500;28;20038;-76
2024/01/15 03:05:23;;;;;;;7.63;4.60;;;;;;;-1.46;100.00;100144.56;5024243;28;20041;-76
2024/01/15 03:07:48;;;;;;;8.50;4.78;;;;;;;-1.38;100.00;100161.00;5026444;28;20052;-75
2024/01/15 03:10:14;;;;;;;12.77;4.53;;;;;;;-1.56;100.00;100139.47;5024451;28;20120;-76
2024/01/15 03:12:39;;;;;;;9.05;4.88;;;;;;;-1.41;100.00;100163.66;5024631;28;20482;-77
2024/01/15 03:15:05;;;;;;;8.43;4.55;;;;;;;-1.39;100.00;100160.13;5025764;28;20374;-78
2024/01/15 03:17:30;;;;;;;11.35;5.18;;;;;;;-1.34;100.00;100168.81;5026515;28;20036;-77
2024/01/15 03:19:56;;;;;;;12.75;5.32;;;;;;;-1.27;100.00;100169.56;5019867;28;20021;-78
2024/01/15 03:22:21;;;;;;;10.48;5.55;;;;;;;-1.19;100.00;100180.78;5022900;28;20439;-78
2024/01/15 03:24:46;;;;;;;12.00;5.97;;;;;;;-1.18;100.00;100173.78;5025849;28;20033;-78
2024/01/15 03:27:12;;;;;;;10.38;5.93;;;;;;;-1.09;100.00;100174.53;5025903;28;20087;-79
2024/01/15 03:29:37;;;;;;;13.68;6.13;;;;;;;-1.12;100.00;100169.38;5025373;28;20112;-79
2024/01/15 03:32:03;;;;;;;12.77;5.97;;;;;;;-1.15;100.00;100158.94;5022091;28;20025;-77
2024/01/15 03:34:28;;;;;;;10.90;6.15;;;;;;;-1.16;100.00;100167.69;5023114;28;20044;-78
2024/01/15 03:36:53;;;;;;;10.75;5.57;;;;;;;-1.23;100.00;100155.59;5018651;28;20033;-79
2024/01/15 03:39:22;;;;;;;12.52;6.05;;;;;;;-1.24;100.00;100168.66;5021398;28;20059;-79
2024/01/15 03:41:47;;;;;;;16.63;6.40;;;;;;;-1.22;100.00;100157.31;5022923;28;20072;-77
2024/01/15 03:44:13;;;;;;;13.60;6.22;;;;;;;-1.21;100.00;100156.44;5039378;28;20033;-78
2024/01/15 03:46:38;;;;;;;13.52;7.60;;;;;;;-1.28;100.00;100154.78;5021789;28;20527;-78
2024/01/15 03:49:03;;;;;;;12.85;6.25;;;;;;;-1.24;100.00;100153.88;5022125;28;20126;-79
2024/01/15 03:51:29;;;;;;;13.82;6.63;;;;;;;-1.18;100.00;100151.16;5023587;28;20412;-78
2024/01/15 03:53:54;;;;;;;14.18;6.88;;;;;;;-1.10;100.00;100157.13;5021474;28;20056;-78
2024/01/15 03:56:20;;;;;;;17.45;7.32;;;;;;;-1.19;100.00;100130.28;5019980;28;20137;-78
2024/01/15 03:58:45;;;;;;;13.80;6.55;;;;;;;-1.11;100.00;100136.28;5022612;28;20432;-78
2024/01/15 04:01:11;;;;;;;16.48;6.38;;;;;;;-1.02;100.00;100144.81;5021940;28;20355;-78
2024/01/15 04:03:36;;;;;;;13.25;5.68;;;;;;;-1.12;100.00;100131.94;5022539;28;20072;-78
2024/01/15 04:06:03;;;;;;;12.50;5.80;;;;;;;-1.09;100.00;100145.78;5021840;28;20025;-77
2024/01/15 04:08:28;;;;;;;12.85;5.45;;;;;;;-1.18;100.00;100129.41;5017762;28;20029;-78
2024/01/15 04:10:54;;;;;;;14.52;4.95;;;;;;;-1.09;100.00;100137.97;5023336;28;20029;-76
2024/01/15 04:13:20;;;;;;;10.38;4.80;;;;;;;-1.18;100.00;100116.34;5023619;28;20036;-78
2024/01/15 04:15:46;;;;;;;11.57;4.13;;;;;;;-1.14;100.00;100113.66;5023165;28;20033;-76
2024/01/15 04:18:11;;;;;;;12.30;3.90;;;;;;;-1.00;100.00;100126.53;5020103;28;20033;-77
2024/01/15 04:20:37;;;;;;;9.32;4.15;;;;;;;-1.01;100.00;100133.47;5024938;28;20017;-77
2024/01/15 04:23:05;;;;;;;11.10;4.03;;;;;;;-1.04;100.00;100125.72;5022400;28;20025;-78
2024/01/15 04:25:30;;;;;;;8.75;3.45;;;;;;;-1.04;100.00;100119.63;5026597;28;20534;-78
2024/01/15 04:27:56;;;;;;;13.90;4.10;;;;;;;-1.05;100.00;100112.66;5027883;28;20026;-78
2024/01/15 04:30:21;;;;;;;9.13;4.10;;;;;;;-0.95;100.00;100124.72;5027933;28;20516;-78
2024/01/15 04:32:46;;;;;;;14.10;3.95;;;;;;;-1.14;100.00;100084.94;5028372;28;20041;-79
2024/01/15 04:35:12;;;;;;;8.55;3.30;;;;;;;-0.96;100.00;100123.00;5026153;28;20116;-77
2024/01/15 04:37:38;;;;;;;9.93;3.58;;;;;;;-1.15;100.00;100083.22;5026026;28;20071;-77
2024/01/15 04:40:03;;;;;;;7.47;3.00;;;;;;;-0.99;100.00;100109.13;5027903;28;20085;-79
2024/01/15 04:42:29;;;;;;;9.18;3.35;;;;;;;-1.00;100.00;100110.88;5028427;28;20041;-77
2024/01/15 04:44:54;;;;;;;9.70;3.38;;;;;;;-1.04;100.00;100115.28;5027781;28;20025;-78
2024/01/15 04:47:20;;;;;;;9.45;3.13;;;;;;;-1.04;100.00;100110.03;5025015;28;20049;-79
2024/01/15 04:49:45;;;;;;;7.60;2.80;;;;;;;-1.16;100.00;100089.34;5024767;28;20468;-78
2024/01/15 04:52:11;;;;;;;10.60;2.85;;;;;;;-0.97;100.00;100109.94;5023146;28;20029;-78
2024/01/15 04:54:36;;;;;;;5.72;2.30;;;;;;;-0.91;100.00;100115.09;5025714;28;20052;-78
2024/01/15 04:57:02;;;;;;;6.40;2.70;;;;;;;-1.06;100.00;100093.53;5026570;28;20052;-77
2024/01/15 04:59:28;;;;;;;3.97;2.50;;;;;;;-1.00;100.00;100095.19;5026014;28;20318;-78
2024/01/15 05:01:53;;;;;;;9.77;2.72;;;;;;;-1.07;100.00;100102.25;5021687;28;20064;-79
2024/01/15 05:04:18;;;;;;;6.55;3.08;;;;;;;-0.98;100.00;100113.44;5021767;28;20382;-78
2024/01/15 05:06:44;;;;;;;7.00;2.88;;;;;;;-0.99;100.00;100122.19;5021322;28;20029;-78
2024/01/15 05:09:09;;;;;;;5.85;2.60;;;;;;;-1.07;100.00;100109.22;5023399;28;20029;-78
2024/01/15 05:11:34;;;;;;;5.00;2.80;;;;;;;-1.06;100.00;100127.47;5017127;28;20036;-77
2024/01/15 05:14:00;;;;;;;7.43;2.78;;;;;;;-1.20;100.00;100111.16;5025604;28;20152;-78
2024/01/15 05:16:25;;;;;;;7.38;2.70;;;;;;;-1.28;100.00;100106.03;5024748;28;20054;-77
2024/01/15 05:18:51;;;;;;;8.95;2.85;;;;;;;-1.37;100.00;100100.09;5025904;28;20107;-78
2024/01/15 05:21:16;;;;;;;5.45;3.10;;;;;;;-1.42;100.00;100092.34;5026878;28;20407;-78
2024/01/15 05:23:41;;;;;;;4.85;2.67;;;;;;;-1.37;100.00;100097.50;5027331;28;20030;-76
2024/01/15 05:26:08;;;;;;;4.95;2.92;;;;;;;-1.36;100.00;100096.59;5026739;28;20040;-78
2024/01/15 05:28:34;;;;;;;5.22;3.35;;;;;;;-1.40;100.00;100079.25;5025217;28;20029;-78
2024/01/15 05:30:59;;;;;;;8.02;3.40;;;;;;;-1.30;100.00;100084.31;5024926;28;20411;-78
2024/01/15 05:33:25;;;;;;;11.80;4.30;;;;;;;-1.45;100.00;100061.06;5025004;28;20033;-78
2024/01/15 05:35:53;;;;;;;6.50;3.78;;;;;;;-1.32;100.00;100083.47;5025416;28;20031;-79
2024/01/15 05:38:19;;;;;;;6.78;3.65;;;;;;;-1.34;100.00;100086.97;5023488;28;20037;-79
2024/01/15 05:40:44;;;;;;;10.55;4.00;;;;;;;-1.44;100.00;100062.75;5024097;28;20021;-80
2024/01/15 05:43:10;;;;;;;8.75;3.90;;;;;;;-1.41;100.00;100073.16;5021768;28;20352;-79
2024/01/15 05:45:35;;;;;;;6.90;3.90;;;;;;;-1.35;100.00;100078.28;5026668;28;20049;-80
2024/01/15 05:48:01;;;;;;;7.78;3.83;;;;;;;-1.41;100.00;100078.41;5025122;28;20076;-78
2024/01/15 05:50:26;;;;;;;9.25;3.97;;;;;;;-1.36;100.00;100080.94;5025945;28;20298;-78
2024/01/15 05:52:52;;;;;;;10.48;4.28;;;;;;;-1.35;100.00;100074.81;5026471;28;20029;-77
2024/01/15 05:55:18;;;;;;;10.52;4.32;;;;;;;-1.37;100.00;100063.56;5023777;28;20029;-79
2024/01/15 05:57:44;;;;;;;12.02;5.55;;;;;;;-1.27;100.00;100073.81;5018816;28;20030;-79
2024/01/15 06:00:10;;;;;;;16.10;5.97;;;;;;;-1.23;100.00;100072.03;5026383;28;20337;-78
2024/01/15 06:02:38;;;;;;;11.73;5.78;;;;;;;-1.27;100.00;100058.16;5027639;28;20030;-76
2024/01/15 06:05:03;;;;;;;14.40;6.25;;;;;;;-1.22;100.00;100054.59;5025293;28;20048;-78
2024/01/15 06:07:29;;;;;;;15.85;6.97;;;;;;;-1.28;100.00;100034.69;5025166;28;20033;-77
2024/01/15 06:09:56;;;;;;;19.90;8.52;;;;;;;-1.15;100.00;100053.63;5023003;28;20045;-77
2024/01/15 06:12:22;;;;;;;16.15;8.07;;;;;;;-1.09;100.00;100064.84;5022996;28;20036;-78
2024/01/15 06:14:47;;;;;;;16.17;7.63;;;;;;;-1.06;100.00;100061.31;5022542;28;20029;-77
2024/01/15 06:17:13;;;;;;;19.13;8.02;;;;;;;-1.05;100.00;100061.28;5024694;28;20049;-77
2024/01/15 06:19:38;;;;;;;15.88;7.55;;;;;;;-1.03;100.00;100063.88;5024933;28;20021;-76
2024/01/15 06:22:03;;;;;;;18.45;7.97;;;;;;;-1.01;100.00;100054.28;5024610;28;20079;-77
2024/01/15 06:24:29;;;;;;;14.18;7.18;;;;;;;-0.99;100.00;100054.25;5025367;28;20319;-78
2024/01/15 06:26:54;;;;;;;13.57;6.85;;;;;;;-1.02;100.00;100050.78;5023962;28;20033;-76
2024/01/15 06:29:21;;;;;;;14.23;7.50;;;;;;;-0.99;100.00;100057.72;5024036;28;20536;-77
2024/01/15 06:31:46;;;;;;;16.17;7.28;;;;;;;-1.04;100.00;100052.59;5022762;28;20558;-78
2024/01/15 06:34:12;;;;;;;11.80;6.50;;;;;;;-1.06;100.00;100032.59;5024040;28;20026;-78
2024/01/15 06:36:37;;;;;;;14.55;6.20;;;;;;;-0.97;100.00;100057.69;5022527;28;20162;-79
2024/01/15 06:39:02;;;;;;;10.75;5.63;;;;;;;-1.07;100.00;100034.34;5024572;28;20167;-77
2024/01/15 06:41:28;;;;;;;12.30;6.10;;;;;;;-1.05;100.00;100052.59;5023101;28;20037;-77
2024/01/15 06:43:53;;;;;;;12.52;6.43;;;;;;;-1.12;100.00;100054.47;5014972;28;20033;-78
2024/01/15 06:46:22;;;;;;;16.08;7.15;;;;;;;-1.11;100.00;100055.31;5021600;28;20289;-77
2024/01/15 06:48:49;;;;;;;15.60;7.90;;;;;;;-1.21;100.00;100041.56;5021453;28;20033;-77
2024/01/15 06:51:16;;;;;;;12.52;7.80;;;;;;;-1.19;100.00;100057.19;5023514;28;20033;-76
2024/01/15 06:53:41;;;;;;;10.88;7.72;;;;;;;-1.31;100.00;100050.41;5022861;28;20025;-77
2024/01/15 06:56:06;;;;;;;15.27;8.60;;;;;;;-1.25;100.00;100058.16;5022194;28;20498;-78
2024/01/15 06:58:32;;;;;;;15.23;8.35;;;;;;;-1.25;100.00;100060.75;5038252;28;20033;-78
2024/01/15 07:00:57;;;;;;;10.45;8.07;;;;;;;-1.30;100.00;100050.34;5021134;28;20049;-77
2024/01/15 07:03:23;;;;;;;13.77;7.80;;;;;;;-1.33;100.00;100060.88;5022963;28;20475;-77
2024/01/15 07:05:48;;;;;;;12.05;8.18;;;;;;;-1.41;100.00;100056.66;5023031;28;20040;-77
2024/01/15 07:08:13;;;;;;;12.23;8.38;;;;;;;-1.40;100.00;100054.00;5021538;28;20479;-77
2024/01/15 07:10:39;;;;;;;13.23;9.55;;;;;;;-1.53;100.00;100032.44;5022581;28;20029;-76
2024/01/15 07:13:07;;;;;;;13.30;9.25;;;;;;;-1.40;100.00;100051.41;5019398;28;20087;-78
2024/01/15 07:15:33;;;;;;;14.43;8.88;;;;;;;-1.42;100.00;100042.75;5020499;28;20041;-79
2024/01/15 07:17:58;;;;;;;15.15;9.52;;;;;;;-1.51;100.00;100035.03;5019030;28;20439;-77
2024/01/15 07:20:23;;;;;;;16.20;9.98;;;;;;;-1.42;100.00;100045.34;5017202;28;20116;-78
2024/01/15 07:22:49;;;;;;;13.75;10.15;;;;;;;-1.45;100.00;100037.56;5015809;28;20486;-78
2024/01/15 07:25:16;;;;;;;17.50;9.75;;;;;;;-1.37;100.00;100055.72;5019874;28;20418;-77
2024/01/15 07:27:44;;;;;;;14.35;9.50;;;;;;;-1.43;100.00;100043.59;5019481;28;20037;-76
2024/01/15 07:30:10;;;;;;;14.55;9.30;;;;;;;-1.37;100.00;100059.19;5018913;28;20055;-76
2024/01/15 07:32:35;;;;;;;12.02;8.52;;;;;;;-1.41;100.00;100051.44;5017263;28;20021;-76
2024/01/15 07:35:01;;;;;;;11.70;8.27;;;;;;;-1.58;100.00;100038.63;5020927;28;20041;-76
2024/01/15 07:37:26;;;;;;;12.82;8.55;;;;;;;-1.48;100.00;100060.22;5021249;28;20025;-77
2024/01/15 07:39:51;;;;;;;14.20;8.38;;;;;;;-1.63;100.00;100035.19;5020444;28;20064;-77
2024/01/15 07:42:17;;;;;;;9.77;7.50;;;;;;;-1.51;100.00;100055.91;5019337;28;20036;-76
2024/01/15 07:44:42;;;;;;;8.73;7.40;;;;;;;-1.49;100.00;100053.28;5014329;28;20140;-78
2024/01/15 07:47:09;;;;;;;11.98;7.50;;;;;;;-1.48;100.00;100061.09;5020130;28;20387;-76
2024/01/15 07:49:34;;;;;;;10.90;7.72;;;;;;;-1.43;100.00;100064.47;5018848;28;20089;-77
2024/01/15 07:52:00;;;;;;;10.25;7.70;;;;;;;-1.43;100.00;100077.53;5022264;28;20025;-76
2024/01/15 07:54:25;;;;;;;12.90;9.05;;;;;;;-1.42;100.00;100060.13;5037770;28;20025;-78
2024/01/15 07:56:59;;;;;;;14.40;10.18;;;;;;;-1.32;100.00;100077.41;5027106;28;20072;-76
2024/01/15 07:59:25;;;;;;;16.52;11.82;;;;;;;-1.34;100.00;100067.00;5024929;28;20048;-76
2024/01/15 08:01:54;;;;;;;16.42;12.05;;;;;;;-1.43;100.00;100059.25;5025334;28;20085;-77
2024/01/15 08:04:20;;;;;;;16.90;11.55;;;;;;;-1.42;100.00;100055.78;5020690;28;20029;-75
2024/01/15 08:06:46;;;;;;;15.30;11.57;;;;;;;-1.30;100.00;100080.81;5019382;28;20111;-77
2024/01/15 08:09:12;;;;;;;15.82;11.55;;;;;;;-1.29;100.00;100080.81;5022155;28;20420;-76
2024/01/15 08:11:41;;;;;;;15.88;11.70;;;;;;;-1.24;100.00;100091.19;5023694;28;20083;-75
2024/01/15 08:14:07;;;;;;;17.50;11.13;;;;;;;-1.29;100.00;100072.13;5026083;28;20122;-76
2024/01/15 08:16:33;;;;;;;14.75;11.07;;;;;;;-1.22;100.00;100089.41;5026775;28;20053;-75
2024/01/15 08:18:58;;;;;;;15.25;11.63;;;;;;;-1.22;100.00;100083.34;5026749;28;20502;-75
2024/01/15 08:21:24;;;;;;;12.80;10.57;;;;;;;-1.26;100.00;100077.28;5026342;28;20367;-76
2024/01/15 08:23:50;;;;;;;13.95;10.48;;;;;;;-1.19;100.00;100084.16;5023989;28;20029;-75
2024/01/15 08:26:15;;;;;;;12.40;10.07;;;;;;;-1.17;100.00;100082.41;5018219;28;20033;-74
2024/01/15 08:28:41;;;;;;;12.10;9.80;;;;;;;-1.13;100.00;100091.03;5024819;28;20022;-75
2024/01/15 08:31:06;;;;;;;12.75;9.90;;;;;;;-1.14;100.00;100087.56;5024511;28;20403;-73
2024/01/15 08:33:31;;;;;;;11.75;9.80;;;;;;;-1.16;100.00;100088.47;5022867;28;20033;-73
2024/01/15 08:35:57;;;;;;;11.25;10.05;;;;;;;-1.12;100.00;100092.78;5024856;28;20029;-74
2024/01/15 08:38:22;;;;;;;11.52;10.18;;;;;;;-1.13;100.00;100086.69;5021208;28;20049;-74
2024/01/15 08:40:49;;;;;;;11.88;9.85;;;;;;;-1.11;100.00;100094.50;5019982;28;20117;-75
2024/01/15 08:43:15;;;;;;;11.02;9.82;;;;;;;-1.17;100.00;100081.50;5019336;28;20038;-75
2024/01/15 08:45:40;;;;;;;12.13;10.82;;;;;;;-1.09;100.00;100098.78;5023254;28;20349;-76
2024/01/15 08:48:06;;;;;;;11.52;9.63;;;;;;;-1.09;100.00;100100.53;5027020;28;20487;-75
2024/01/15 08:50:32;;;;;;;9.75;8.32;;;;;;;-1.12;100.00;100092.78;5024882;28;20096;-77
2024/01/15 08:53:01;;;;;;;9.68;8.20;;;;;;;-1.05;100.00;100116.13;5027497;28;20032;-77
2024/01/15 08:55:26;;;;;;;9.75;6.82;;;;;;;-1.07;100.00;100104.88;5024654;28;20026;-79
2024/01/15 08:57:52;;;;;;;9.52;6.40;;;;;;;-1.10;100.00;100101.44;5026117;28;20025;-78
2024/01/15 09:00:17;;;;;;;6.90;4.88;;;;;;;-1.15;100.00;100116.31;5023150;28;20018;-78
2024/01/15 09:02:43;;;;;;;5.35;4.30;;;;;;;-1.19;100.00;100099.81;5022766;28;20033;-78
2024/01/15 09:05:09;;;;;;;5.38;4.13;;;;;;;-1.27;100.00;100089.47;5020317;28;20029;-79
2024/01/15 09:07:34;;;;;;;5.95;4.40;;;;;;;-1.31;100.00;100081.72;5024302;28;20041;-79
2024/01/15 09:09:59;;;;;;;11.88;4.53;;;;;;;-1.21;100.00;100095.50;5021735;28;20026;-80
2024/01/15 09:12:26;;;;;;;7.18;3.83;;;;;;;-1.11;100.00;100108.41;5023226;28;20382;-76
2024/01/15 09:14:53;;;;;;;8.32;4.00;;;;;;;-1.06;100.00;100106.59;5024756;28;20109;-76
2024/01/15 09:17:19;;;;;;;6.28;3.30;;;;;;;-1.05;100.00;100113.53;5025444;28;20168;-76
2024/01/15 09:19:45;;;;;;;3.42;2.60;;;;;;;-1.13;100.00;100088.41;5020374;28;20022;-76
2024/01/15 09:22:14;;;;;;;7.63;2.90;;;;;;;-1.05;100.00;100113.53;5026099;28;20608;-76
2024/01/15 09:24:41;;;;;;;6.50;3.05;;;;;;;-1.03;100.00;100121.34;5027940;28;20033;-77
2024/01/15 09:27:06;;;;;;;7.65;3.30;;;;;;;-1.39;100.00;100066.16;5027832;28;20029;-76
2024/01/15 09:29:32;;;;;;;5.13;2.67;;;;;;;-1.00;100.00;100116.09;5026766;28;20022;-74
2024/01/15 09:31:58;;;;;;;5.93;2.50;;;;;;;-0.97;100.00;100110.78;5021729;28;20439;-77
2024/01/15 09:34:24;;;;;;;6.95;2.70;;;;;;;-1.37;100.00;100043.53;5030047;28;20033;-76
2024/01/15 09:36:49;;;;;;;6.53;2.97;;;;;;;-1.07;100.00;100078.75;5025455;28;20033;-76
2024/01/15 09:39:15;;;;;;;5.63;3.15;;;;;;;-1.57;100.00;100004.66;5023728;28;20503;-77
2024/01/15 09:41:42;;;;;;;6.80;3.22;;;;;;;-0.93;100.00;100106.38;5028010;28;20412;-78
2024/01/15 09:44:09;;;;;;;5.07;3.20;;;;;;;-1.00;100.00;100105.66;5026324;28;20033;-79
2024/01/15 09:46:34;;;;;;;7.38;3.28;;;;;;;-1.02;100.00;100097.81;5021616;28;20499;-72
2024/01/15 09:49:01;;;;;;;4.25;3.05;;;;;;;-1.02;100.00;100103.03;5018990;28;20240;-72
2024/01/15 09:51:30;;;;;;;3.30;2.78;;;;;;;-0.88;100.00;100110.69;5021544;28;20084;-73
2024/01/15 09:53:57;;;;;;;4.07;3.10;;;;;;;-0.74;100.00;100118.28;5020781;28;20445;-71
2024/01/15 09:56:23;;;;;;;4.05;2.42;;;;;;;-0.66;100.00;100121.63;5021311;28;20034;-72
2024/01/15 09:58:48;;;;;;;6.50;2.80;;;;;;;-0.51;100.00;100120.50;5018331;28;20083;-71
2024/01/15 10:01:16;;;;;;;7.05;2.88;;;;;;;-0.57;100.00;100105.78;5020406;28;20529;-72
2024/01/15 10:03:42;;;;;;;6.32;2.90;;;;;;;-0.46;100.00;100120.41;5021548;28;20060;-73
2024/01/15 10:06:09;;;;;;;4.65;2.65;;;;;;;-0.51;100.00;100125.72;5017786;28;20477;-71
2024/01/15 10:08:36;;;;;;;6.40;3.08;;;;;;;-0.58;100.00;100130.22;5036546;28;20040;-71
2024/01/15 10:11:04;;;;;;;6.72;3.80;;;;;;;-0.70;100.00;100124.31;5018522;28;20193;-71
2024/01/15 10:13:30;;;;;;;5.65;4.03;;;;;;;-0.83;100.00;100127.13;5021128;28;20033;-71
2024/01/15 10:15:56;;;;;;;6.57;4.25;;;;;;;-0.91;100.00;100123.78;5018792;28;20120;-72
2024/01/15 10:18:24;;;;;;;6.75;4.88;;;;;;;-0.92;100.00;100126.41;5015663;28;20411;-71
2024/01/15 10:20:49;;;;;;;6.72;4.97;;;;;;;-0.84;100.00;100112.31;5022037;28;20033;-71
2024/01/15 10:23:15;;;;;;;7.25;4.93;;;;;;;-0.54;100.00;100108.38;5011881;28;20431;-71
2024/01/15 10:25:42;;;;;;;6.43;4.72;;;;;;;-0.43;100.00;100107.31;5023345;28;20018;-72
2024/01/15 10:28:07;;;;;;;7.78;5.05;;;;;;;-0.49;100.00;100115.25;5016818;28;20029;-71
2024/01/15 10:30:33;;;;;;;7.88;4.90;;;;;;;-0.59;100.00;100112.78;5016610;28;20084;-71
2024/01/15 10:33:03;;;;;;;7.70;5.30;;;;;;;-0.76;100.00;100088.69;5021568;28;20029;-77
2024/01/15 10:35:30;;;;;;;8.60;5.18;;;;;;;-0.76;100.00;100088.69;5023044;28;20116;-76
2024/01/15 10:37:56;;;;;;;7.65;5.20;;;;;;;-0.67;100.00;100098.13;5019856;28;20029;-77
2024/01/15 10:40:23;;;;;;;7.10;5.40;;;;;;;-0.53;100.00;100112.69;5017689;28;20080;-77
2024/01/15 10:42:48;;;;;;;8.05;6.00;;;;;;;-0.40;100.00;100117.72;5019035;28;20034;-77
2024/01/15 10:45:14;;;;;;;7.63;5.95;;;;;;;-0.22;100.00;100111.28;5018731;28;20032;-78
2024/01/15 10:47:40;;;;;;;8.45;6.13;;;;;;;-0.13;100.00;100122.41;5016772;28;20065;-77
2024/01/15 10:50:07;;;;;;;9.00;6.40;;;;;;;-0.04;100.00;100119.66;5019996;28;20652;-77
2024/01/15 10:52:35;;;;;;;7.57;5.50;;;;;;;-0.12;100.00;100113.72;5020526;28;20040;-78
2024/01/15 10:55:02;;;;;;;6.68;5.05;;;;;;;-0.22;100.00;100108.66;5018008;28;20436;-78
2024/01/15 10:57:28;;;;;;;8.63;5.88;;;;;;;-0.24;100.00;100106.09;5016206;28;20617;-80
2024/01/15 10:59:53;;;;;;;9.73;5.55;;;;;;;-0.37;100.00;100091.53;5023391;28;20459;-78
2024/01/15 11:02:19;;;;;;;8.82;5.43;;;;;;;-0.33;100.00;100108.88;5019705;28;20125;-78
2024/01/15 11:04:44;;;;;;;8.75;6.35;;;;;;;-0.33;100.00;100082.72;5019915;28;20265;-79